createdAt,value
2019-03-04T00:02:07.819Z,90.40
2019-03-04T00:04:36.222Z,90.50
2019-03-04T00:07:04.632Z,90.50
2019-03-04T00:09:33.202Z,90.50
2019-03-04T00:12:01.604Z,90.30
2019-03-04T00:14:30.003Z,90.00
2019-03-04T00:16:58.719Z,90.20
2019-03-04T00:19:27.196Z,89.70
2019-03-04T00:21:55.602Z,90.10
2019-03-04T00:24:24.034Z,90.10
2019-03-04T00:26:52.434Z,90.20
2019-03-04T00:29:21.025Z,90.20
2019-03-04T00:31:49.461Z,90.10
2019-03-04T00:34:17.861Z,90.00
2019-03-04T00:36:46.262Z,90.00
2019-03-04T00:39:14.769Z,90.10
2019-03-04T00:41:43.166Z,88.60
2019-03-04T00:44:11.593Z,87.20
2019-03-04T00:46:39.991Z,86.50
2019-03-04T00:49:08.380Z,87.10
2019-03-04T00:51:36.825Z,86.60
2019-03-04T00:54:05.218Z,86.60
2019-03-04T00:56:33.708Z,86.60
2019-03-04T00:59:02.843Z,86.70
2019-03-04T01:01:31.246Z,86.60
2019-03-04T01:03:59.645Z,86.80
2019-03-04T01:06:28.056Z,86.90
2019-03-04T01:08:56.460Z,87.40
2019-03-04T01:11:24.856Z,87.60
2019-03-04T01:13:53.286Z,87.70
2019-03-04T01:16:21.681Z,88.30
2019-03-04T01:18:50.113Z,88.60
2019-03-04T01:21:18.510Z,89.30
2019-03-04T01:23:46.926Z,89.80
2019-03-04T01:26:15.582Z,90.00
2019-03-04T01:28:44.000Z,90.20
2019-03-04T01:31:12.385Z,90.30
2019-03-04T01:33:40.814Z,90.50
2019-03-04T01:36:09.206Z,90.70
2019-03-04T01:38:37.642Z,91.00
2019-03-04T01:41:06.041Z,91.10
2019-03-04T01:43:34.446Z,91.30
2019-03-04T01:46:02.872Z,91.50
2019-03-04T01:48:31.272Z,91.50
2019-03-04T01:50:59.768Z,91.30
2019-03-04T01:53:28.222Z,91.20
2019-03-04T01:55:56.622Z,91.20
2019-03-04T01:58:25.090Z,91.30
2019-03-04T02:00:53.623Z,91.00
2019-03-04T02:03:22.016Z,90.90
2019-03-04T02:05:50.408Z,90.90
2019-03-04T02:08:19.402Z,90.90
2019-03-04T02:10:47.798Z,90.90
2019-03-04T02:13:16.201Z,90.90
2019-03-04T02:15:44.643Z,91.00
2019-03-04T02:18:13.049Z,90.90
2019-03-04T02:20:41.492Z,90.80
2019-03-04T02:23:09.915Z,90.60
2019-03-04T02:25:46.951Z,90.50
2019-03-04T02:28:15.373Z,90.50
2019-03-04T02:30:43.796Z,90.40
2019-03-04T02:33:12.286Z,90.50
2019-03-04T02:35:40.721Z,90.60
2019-03-04T02:38:09.148Z,90.60
2019-03-04T02:40:37.547Z,90.80
2019-03-04T02:43:05.999Z,90.70
2019-03-04T02:45:34.536Z,90.90
2019-03-04T02:48:02.940Z,90.80
2019-03-04T02:50:31.431Z,90.90
2019-03-04T02:52:59.976Z,91.10
2019-03-04T02:55:28.369Z,91.20
2019-03-04T02:57:56.807Z,91.20
2019-03-04T03:00:25.268Z,91.20
2019-03-04T03:02:53.701Z,91.20
2019-03-04T03:05:22.097Z,91.20
2019-03-04T03:07:50.513Z,91.10
2019-03-04T03:10:18.905Z,91.30
2019-03-04T03:12:47.311Z,91.40
2019-03-04T03:15:18.437Z,91.60
2019-03-04T03:17:46.856Z,91.60
2019-03-04T03:20:16.230Z,91.60
2019-03-04T03:22:44.742Z,91.80
2019-03-04T03:25:14.730Z,91.90
2019-03-04T03:27:43.142Z,91.90
2019-03-04T03:30:19.118Z,92.00
2019-03-04T03:32:47.542Z,92.00
2019-03-04T03:35:15.931Z,92.10
2019-03-04T03:37:44.349Z,92.10
2019-03-04T03:40:17.681Z,92.10
2019-03-04T03:42:46.081Z,92.00
2019-03-04T03:45:14.805Z,92.20
2019-03-04T03:47:43.226Z,92.30
2019-03-04T03:50:15.030Z,92.40
2019-03-04T03:52:43.477Z,92.50
2019-03-04T03:55:13.766Z,92.40
2019-03-04T03:57:42.176Z,92.30
2019-03-04T04:00:16.692Z,92.10
2019-03-04T04:02:45.093Z,92.00
2019-03-04T04:05:13.601Z,92.20
2019-03-04T04:07:42.073Z,91.70
2019-03-04T04:10:14.569Z,91.60
2019-03-04T04:12:43.058Z,91.50
2019-03-04T04:15:13.209Z,91.40
2019-03-04T04:17:42.466Z,91.20
2019-03-04T04:20:11.964Z,91.20
2019-03-04T04:22:40.413Z,91.10
2019-03-04T04:25:10.834Z,91.20
2019-03-04T04:27:39.587Z,91.20
2019-03-04T04:30:29.937Z,91.20
2019-03-04T04:32:58.378Z,91.20
2019-03-04T04:35:26.776Z,91.20
2019-03-04T04:37:55.184Z,91.00
2019-03-04T04:40:23.611Z,90.50
2019-03-04T04:42:52.009Z,90.00
2019-03-04T04:45:20.423Z,89.50
2019-03-04T04:47:48.824Z,89.00
2019-03-04T04:50:31.693Z,88.50
2019-03-04T04:53:00.096Z,88.20
2019-03-04T04:55:28.490Z,88.00
2019-03-04T04:57:56.904Z,88.00
2019-03-04T05:00:25.468Z,87.40
2019-03-04T05:02:53.863Z,87.20
2019-03-04T05:05:22.287Z,86.30
2019-03-04T05:07:50.686Z,85.90
2019-03-04T05:10:21.184Z,85.70
2019-03-04T05:12:49.624Z,85.00
2019-03-04T05:15:18.088Z,85.40
2019-03-04T05:17:47.463Z,85.30
2019-03-04T05:20:18.345Z,85.20
2019-03-04T05:22:46.741Z,85.20
2019-03-04T05:25:15.208Z,85.10
2019-03-04T05:27:43.646Z,84.80
2019-03-04T05:30:15.055Z,84.40
2019-03-04T05:32:43.479Z,84.20
2019-03-04T05:35:12.064Z,84.10
2019-03-04T05:37:40.522Z,84.10
2019-03-04T05:40:14.520Z,84.10
2019-03-04T05:42:42.984Z,84.10
2019-03-04T05:45:18.005Z,83.90
2019-03-04T05:47:46.492Z,83.90
2019-03-04T05:50:25.612Z,83.60
2019-03-04T05:52:54.010Z,83.00
2019-03-04T05:55:22.401Z,82.90
2019-03-04T05:57:50.825Z,82.80
2019-03-04T06:00:22.903Z,82.90
2019-03-04T06:02:53.760Z,82.50
2019-03-04T06:05:22.359Z,82.50
2019-03-04T06:07:58.472Z,82.80
2019-03-04T06:10:26.896Z,82.90
2019-03-04T06:12:55.963Z,82.70
2019-03-04T06:15:24.464Z,82.70
2019-03-04T06:17:52.848Z,82.90
2019-03-04T06:20:21.281Z,83.10
2019-03-04T06:22:49.676Z,82.70
2019-03-04T06:25:21.136Z,82.50
2019-03-04T06:27:49.570Z,82.70
2019-03-04T06:30:26.910Z,82.20
2019-03-04T06:32:55.319Z,82.10
2019-03-04T06:35:24.480Z,82.10
2019-03-04T06:37:52.887Z,81.90
2019-03-04T06:40:21.650Z,82.80
2019-03-04T06:42:50.370Z,83.50
2019-03-04T06:45:20.017Z,84.10
2019-03-04T06:47:48.426Z,84.40
2019-03-04T06:50:51.357Z,84.20
2019-03-04T06:53:32.101Z,84.50
2019-03-04T06:56:06.468Z,84.70
2019-03-04T06:58:40.453Z,84.50
2019-03-04T07:01:11.920Z,83.10
2019-03-04T07:03:41.053Z,82.90
2019-03-04T07:06:09.471Z,84.10
2019-03-04T07:08:40.986Z,88.90
2019-03-04T07:11:09.386Z,92.50
2019-03-04T07:13:37.781Z,93.70
2019-03-04T07:16:06.200Z,95.50
2019-03-04T07:18:34.596Z,96.90
2019-03-04T07:21:03.051Z,96.20
2019-03-04T07:23:31.481Z,96.80
2019-03-04T07:26:00.592Z,96.20
2019-03-04T07:28:29.014Z,95.80
2019-03-04T07:30:57.427Z,95.60
2019-03-04T07:33:25.814Z,96.20
2019-03-04T07:35:54.322Z,95.50
2019-03-04T07:38:25.781Z,96.10
2019-03-04T07:40:54.241Z,96.20
2019-03-04T07:43:22.665Z,95.60
2019-03-04T07:45:51.075Z,95.40
2019-03-04T07:48:19.470Z,94.30
2019-03-04T07:50:47.897Z,94.70
2019-03-04T07:53:16.294Z,92.90
2019-03-04T07:55:44.687Z,93.20
2019-03-04T07:58:13.113Z,91.70
2019-03-04T08:00:41.505Z,92.00
2019-03-04T08:03:09.895Z,92.50
2019-03-04T08:05:38.314Z,92.40
2019-03-04T08:08:12.299Z,89.80
2019-03-04T08:11:06.390Z,89.10
2019-03-04T08:13:55.322Z,88.30
2019-03-04T08:16:23.729Z,89.60
2019-03-04T08:18:52.120Z,89.70
2019-03-04T08:21:20.548Z,89.30
2019-03-04T08:23:48.940Z,87.60
2019-03-04T08:26:17.328Z,87.40
2019-03-04T08:28:46.052Z,86.10
2019-03-04T08:31:14.726Z,85.60
2019-03-04T08:33:43.129Z,84.90
2019-03-04T08:36:11.557Z,83.90
2019-03-04T08:38:39.953Z,83.70
2019-03-04T08:41:08.354Z,84.30
2019-03-04T08:43:36.784Z,84.50
2019-03-04T08:46:05.197Z,85.20
2019-03-04T08:48:33.591Z,85.10
2019-03-04T08:51:02.448Z,83.60
2019-03-04T08:53:31.105Z,79.60
2019-03-04T08:55:59.559Z,77.70
2019-03-04T08:58:27.996Z,77.90
2019-03-04T09:00:56.381Z,76.70
2019-03-04T09:03:24.803Z,74.80
2019-03-04T09:05:53.197Z,73.00
2019-03-04T09:08:21.585Z,72.80
2019-03-04T09:10:50.005Z,72.90
2019-03-04T09:13:18.412Z,72.20
2019-03-04T09:15:46.809Z,70.90
2019-03-04T09:18:15.284Z,70.30
2019-03-04T09:20:43.734Z,68.90
2019-03-04T09:23:12.207Z,69.40
2019-03-04T09:25:46.132Z,69.10
2019-03-04T09:28:14.530Z,70.10
2019-03-04T09:30:42.932Z,70.40
2019-03-04T09:33:11.348Z,70.50
2019-03-04T09:35:39.755Z,71.70
2019-03-04T09:38:08.152Z,73.00
2019-03-04T09:40:36.808Z,73.90
2019-03-04T09:43:06.645Z,73.80
2019-03-04T09:45:38.838Z,73.50
2019-03-04T09:48:05.620Z,74.60
2019-03-04T09:50:34.017Z,74.20
2019-03-04T09:53:02.417Z,74.50
2019-03-04T09:55:30.836Z,75.60
2019-03-04T09:57:59.323Z,76.00
2019-03-04T10:00:39.172Z,77.00
2019-03-04T10:03:16.788Z,78.20
2019-03-04T10:05:50.796Z,78.40
2019-03-04T10:08:32.384Z,79.40
2019-03-04T10:10:58.585Z,79.90
2019-03-04T10:13:45.225Z,79.30
2019-03-04T10:16:39.284Z,80.00
2019-03-04T10:19:13.668Z,79.10
2019-03-04T10:21:50.809Z,78.10
2019-03-04T10:24:28.189Z,77.50
2019-03-04T10:27:17.240Z,76.80
2019-03-04T10:30:05.201Z,76.50
2019-03-04T10:32:36.752Z,75.00
2019-03-04T10:35:14.409Z,74.80
2019-03-04T10:38:10.409Z,73.50
2019-03-04T10:41:05.248Z,74.10
2019-03-04T10:43:55.833Z,73.30
2019-03-04T10:46:33.320Z,74.10
2019-03-04T10:49:01.724Z,74.60
2019-03-04T10:51:30.143Z,73.50
2019-03-04T10:53:58.589Z,72.70
2019-03-04T10:56:26.988Z,72.00
2019-03-04T10:58:55.385Z,71.80
2019-03-04T11:01:30.479Z,71.60
2019-03-04T11:03:53.952Z,71.70
2019-03-04T11:06:22.344Z,71.00
2019-03-04T11:08:50.755Z,69.80
2019-03-04T11:11:29.275Z,69.10
2019-03-04T11:13:49.629Z,70.60
2019-03-04T11:16:18.020Z,70.00
2019-03-04T11:18:46.673Z,70.40
2019-03-04T11:21:15.073Z,68.90
2019-03-04T11:23:43.465Z,67.50
2019-03-04T11:26:12.067Z,66.80
2019-03-04T11:28:40.468Z,67.30
2019-03-04T11:31:08.857Z,66.30
2019-03-04T11:33:37.291Z,67.20
2019-03-04T11:36:05.688Z,67.10
2019-03-04T11:38:39.463Z,67.80
2019-03-04T11:41:10.032Z,68.10
2019-03-04T11:43:38.450Z,66.00
2019-03-04T11:46:07.672Z,65.60
2019-03-04T11:48:36.104Z,66.00
2019-03-04T11:51:04.769Z,65.70
2019-03-04T11:53:33.184Z,66.30
2019-03-04T11:56:01.616Z,67.80
2019-03-04T11:58:30.006Z,68.40
2019-03-04T12:01:02.704Z,69.60
2019-03-04T12:03:31.263Z,70.00
2019-03-04T12:06:00.188Z,70.30
2019-03-04T12:08:28.588Z,69.60
2019-03-04T12:10:57.015Z,69.40
2019-03-04T12:13:25.410Z,68.80
2019-03-04T12:15:53.909Z,68.60
2019-03-04T12:18:22.319Z,70.00
2019-03-04T12:20:50.700Z,68.90
2019-03-04T12:23:20.077Z,69.20
2019-03-04T12:25:48.500Z,70.60
2019-03-04T12:28:18.396Z,72.50
2019-03-04T12:30:46.783Z,80.00
2019-03-04T12:33:15.186Z,87.50
2019-03-04T12:35:44.644Z,93.10
2019-03-04T12:38:13.044Z,99.20
2019-03-04T12:40:41.432Z,99.90
2019-03-04T12:43:09.863Z,99.90
2019-03-04T12:45:38.250Z,99.90
2019-03-04T12:48:07.552Z,99.90
2019-03-04T12:50:37.774Z,99.90
2019-03-04T12:53:06.331Z,99.90
2019-03-04T12:55:34.731Z,99.90
2019-03-04T12:58:03.584Z,99.90
2019-03-04T13:00:33.986Z,99.90
2019-03-04T13:03:02.428Z,99.90
2019-03-04T13:05:30.829Z,99.90
2019-03-04T13:07:59.236Z,99.90
2019-03-04T13:10:27.762Z,99.90
2019-03-04T13:12:56.153Z,99.90
2019-03-04T13:15:26.776Z,99.90
2019-03-04T13:17:56.071Z,99.90
2019-03-04T13:20:26.601Z,99.90
2019-03-04T13:22:55.057Z,99.90
2019-03-04T13:25:23.486Z,99.40
2019-03-04T13:27:51.924Z,98.40
2019-03-04T13:30:27.567Z,99.30
2019-03-04T13:32:56.027Z,99.60
2019-03-04T13:35:26.833Z,98.30
2019-03-04T13:37:55.321Z,99.00
2019-03-04T13:40:23.844Z,97.60
2019-03-04T13:42:52.657Z,98.20
2019-03-04T13:45:21.122Z,98.00
2019-03-04T13:47:49.509Z,97.60
2019-03-04T13:50:23.837Z,97.00
2019-03-04T13:52:52.232Z,97.50
2019-03-04T13:55:23.966Z,96.20
2019-03-04T13:57:52.554Z,96.00
2019-03-04T14:00:36.233Z,95.80
2019-03-04T14:03:04.901Z,96.80
2019-03-04T14:05:33.411Z,96.90
2019-03-04T14:08:01.853Z,96.30
2019-03-04T14:10:44.080Z,96.50
2019-03-04T14:13:12.672Z,95.30
2019-03-04T14:15:42.512Z,95.10
2019-03-04T14:18:10.908Z,95.00
2019-03-04T14:20:39.409Z,94.80
2019-03-04T14:23:08.264Z,92.20
2019-03-04T14:25:36.755Z,91.30
2019-03-04T14:28:05.249Z,91.20
2019-03-04T14:30:33.641Z,90.90
2019-03-04T14:33:02.043Z,90.60
2019-03-04T14:35:30.620Z,90.00
2019-03-04T14:37:59.304Z,89.20
2019-03-04T14:40:27.850Z,87.90
2019-03-04T14:42:56.263Z,87.70
2019-03-04T14:45:28.026Z,83.00
2019-03-04T14:47:56.457Z,81.10
2019-03-04T14:50:24.928Z,83.60
2019-03-04T14:52:53.326Z,82.20
2019-03-04T14:55:26.592Z,82.20
2019-03-04T14:57:54.981Z,83.00
2019-03-04T15:00:38.221Z,82.60
2019-03-04T15:03:06.784Z,83.00
2019-03-04T15:05:35.640Z,83.60
2019-03-04T15:08:04.496Z,83.80
2019-03-04T15:10:32.912Z,81.80
2019-03-04T15:13:01.828Z,81.50
2019-03-04T15:15:32.438Z,82.20
2019-03-04T15:18:01.044Z,82.10
2019-03-04T15:20:30.760Z,79.50
2019-03-04T15:22:59.157Z,81.80
2019-03-04T15:25:41.488Z,80.40
2019-03-04T15:28:17.711Z,81.20
2019-03-04T15:30:51.748Z,80.30
2019-03-04T15:33:20.258Z,80.20
2019-03-04T15:35:48.905Z,79.20
2019-03-04T15:38:18.037Z,79.00
2019-03-04T15:40:46.424Z,78.10
2019-03-04T15:43:14.822Z,78.30
2019-03-04T15:45:44.888Z,77.60
2019-03-04T15:48:14.068Z,78.90
2019-03-04T15:50:42.522Z,77.80
2019-03-04T15:53:10.964Z,78.00
2019-03-04T15:55:39.516Z,77.90
2019-03-04T15:58:08.020Z,77.70
2019-03-04T16:00:36.577Z,77.70
2019-03-04T16:03:05.841Z,78.20
2019-03-04T16:05:34.472Z,78.10
2019-03-04T16:08:07.518Z,76.00
2019-03-04T16:10:36.641Z,75.70
2019-03-04T16:13:06.628Z,76.00
2019-03-04T16:15:37.050Z,75.00
2019-03-04T16:18:05.509Z,74.20
2019-03-04T16:20:34.101Z,73.10
2019-03-04T16:23:02.492Z,73.30
2019-03-04T16:25:31.092Z,72.30
2019-03-04T16:28:02.898Z,71.60
2019-03-04T16:30:31.325Z,71.40
2019-03-04T16:32:59.717Z,71.10
2019-03-04T16:35:28.732Z,71.30
2019-03-04T16:37:57.179Z,71.60
2019-03-04T16:40:26.016Z,71.00
2019-03-04T16:42:54.442Z,70.10
2019-03-04T16:45:23.576Z,70.90
2019-03-04T16:47:52.164Z,70.60
2019-03-04T16:50:29.085Z,71.10
2019-03-04T16:53:00.278Z,71.40
2019-03-04T16:55:28.663Z,71.20
2019-03-04T16:57:57.443Z,72.40
2019-03-04T17:00:25.999Z,73.40
2019-03-04T17:02:54.402Z,73.90
2019-03-04T17:05:22.839Z,74.70
2019-03-04T17:07:51.242Z,74.80
2019-03-04T17:10:22.190Z,75.60
2019-03-04T17:12:50.903Z,76.30
2019-03-04T17:15:21.318Z,77.40
2019-03-04T17:17:50.081Z,77.00
2019-03-04T17:20:19.516Z,77.70
2019-03-04T17:22:48.011Z,77.40
2019-03-04T17:25:19.027Z,77.60
2019-03-04T17:27:47.848Z,78.50
2019-03-04T17:30:18.986Z,78.70
2019-03-04T17:32:47.509Z,79.00
2019-03-04T17:35:20.030Z,79.10
2019-03-04T17:37:48.642Z,79.30
2019-03-04T17:40:24.382Z,80.20
2019-03-04T17:42:52.777Z,80.30
2019-03-04T17:45:24.324Z,80.70
2019-03-04T17:47:52.947Z,81.20
2019-03-04T17:50:33.143Z,81.10
2019-03-04T17:53:02.571Z,81.60
2019-03-04T17:55:31.156Z,81.60
2019-03-04T17:57:59.579Z,82.10
2019-03-04T18:00:28.276Z,82.00
2019-03-04T18:02:56.848Z,82.20
2019-03-04T18:05:25.272Z,82.70
2019-03-04T18:07:53.659Z,82.30
2019-03-04T18:10:22.232Z,82.20
2019-03-04T18:12:53.153Z,82.30
2019-03-04T18:15:23.497Z,82.40
2019-03-04T18:17:51.973Z,81.80
2019-03-04T18:20:20.405Z,82.00
2019-03-04T18:22:48.868Z,82.50
2019-03-04T18:25:26.549Z,82.60
2019-03-04T18:27:58.438Z,82.20
2019-03-04T18:30:41.783Z,81.50
2019-03-04T18:33:13.377Z,82.50
2019-03-04T18:35:50.382Z,82.10
2019-03-04T18:38:28.116Z,81.50
2019-03-04T18:41:02.237Z,81.60
2019-03-04T18:43:48.584Z,82.10
2019-03-04T18:46:48.630Z,81.20
2019-03-04T18:49:17.016Z,81.40
2019-03-04T18:51:45.445Z,81.60
2019-03-04T18:54:13.979Z,81.50
2019-03-04T18:56:42.393Z,81.40
2019-03-04T18:59:10.820Z,81.70
2019-03-04T19:01:39.207Z,81.10
2019-03-04T19:04:07.597Z,81.50
2019-03-04T19:06:36.020Z,82.00
2019-03-04T19:09:06.176Z,82.10
2019-03-04T19:11:34.584Z,82.30
2019-03-04T19:14:03.544Z,82.60
2019-03-04T19:16:31.959Z,82.30
2019-03-04T19:19:00.421Z,83.00
2019-03-04T19:21:28.851Z,82.70
2019-03-04T19:23:57.236Z,83.50
2019-03-04T19:26:25.633Z,83.40
2019-03-04T19:28:54.523Z,83.00
2019-03-04T19:31:22.917Z,82.60
2019-03-04T19:33:51.308Z,83.40
2019-03-04T19:36:19.749Z,83.80
2019-03-04T19:38:48.138Z,83.60
2019-03-04T19:41:16.524Z,83.50
2019-03-04T19:43:44.988Z,83.40
2019-03-04T19:46:13.452Z,83.60
2019-03-04T19:48:41.906Z,84.20
2019-03-04T19:51:10.342Z,84.80
2019-03-04T19:53:38.798Z,84.90
2019-03-04T19:56:07.636Z,84.90
2019-03-04T19:58:36.056Z,85.10
2019-03-04T20:01:05.028Z,85.20
2019-03-04T20:03:33.408Z,85.40
2019-03-04T20:06:04.081Z,85.80
2019-03-04T20:08:32.636Z,85.90
2019-03-04T20:11:01.106Z,86.90
2019-03-04T20:13:29.513Z,86.60
2019-03-04T20:15:57.968Z,86.90
2019-03-04T20:18:26.357Z,87.10
2019-03-04T20:20:55.223Z,87.40
2019-03-04T20:23:23.617Z,87.50
2019-03-04T20:25:53.145Z,87.50
2019-03-04T20:28:21.569Z,87.50
2019-03-04T20:30:50.095Z,87.40
2019-03-04T20:33:18.864Z,87.30
2019-03-04T20:35:48.793Z,87.50
2019-03-04T20:38:20.257Z,87.30
2019-03-04T20:40:48.685Z,87.10
2019-03-04T20:43:17.105Z,86.90
2019-03-04T20:45:45.493Z,87.30
2019-03-04T20:48:13.975Z,87.00
2019-03-04T20:50:42.364Z,87.10
2019-03-04T20:53:10.765Z,87.00
2019-03-04T20:55:39.184Z,87.20
2019-03-04T20:58:07.740Z,87.60
2019-03-04T21:00:38.204Z,87.60
2019-03-04T21:03:07.621Z,87.80
2019-03-04T21:05:37.403Z,87.90
2019-03-04T21:08:07.142Z,87.90
2019-03-04T21:10:35.739Z,88.10
2019-03-04T21:13:18.480Z,88.00
2019-03-04T21:15:46.950Z,88.30
2019-03-04T21:18:15.411Z,88.20
2019-03-04T21:20:44.426Z,88.20
2019-03-04T21:23:12.984Z,88.40
2019-03-04T21:25:59.754Z,88.60
2019-03-04T21:28:49.516Z,89.00
2019-03-04T21:31:21.004Z,89.50
2019-03-04T21:34:11.338Z,89.50
2019-03-04T21:36:48.746Z,90.00
2019-03-04T21:39:36.310Z,90.20
2019-03-04T21:42:16.766Z,90.60
2019-03-04T21:45:00.605Z,90.70
2019-03-04T21:47:41.142Z,90.90
2019-03-04T21:50:12.646Z,91.10
2019-03-04T21:53:00.869Z,91.10
2019-03-04T21:55:36.605Z,91.10
2019-03-04T21:58:05.432Z,91.20
2019-03-04T22:00:35.992Z,91.20
2019-03-04T22:03:07.611Z,90.90
2019-03-04T22:05:37.055Z,91.10
2019-03-04T22:08:05.608Z,91.00
2019-03-04T22:10:34.106Z,90.90
2019-03-04T22:13:02.742Z,90.80
2019-03-04T22:15:31.192Z,90.70
2019-03-04T22:18:01.196Z,90.70
2019-03-04T22:20:29.924Z,90.50
2019-03-04T22:22:58.339Z,90.40
2019-03-04T22:25:26.742Z,90.40
2019-03-04T22:27:55.217Z,89.90
2019-03-04T22:30:23.600Z,89.60
2019-03-04T22:32:51.992Z,89.00
2019-03-04T22:35:20.452Z,88.50
2019-03-04T22:37:48.915Z,88.70
2019-03-04T22:40:28.637Z,87.60
2019-03-04T22:42:57.205Z,87.50
2019-03-04T22:45:25.597Z,87.00
2019-03-04T22:47:54.037Z,87.30
2019-03-04T22:50:22.895Z,87.00
2019-03-04T22:52:51.368Z,86.30
2019-03-04T22:55:28.663Z,85.50
2019-03-04T22:57:57.046Z,85.40
2019-03-04T23:00:54.620Z,84.90
2019-03-04T23:03:28.228Z,85.20
2019-03-04T23:06:08.620Z,85.20
2019-03-04T23:08:37.013Z,84.60
2019-03-04T23:11:05.684Z,84.40
2019-03-04T23:13:48.927Z,84.60
2019-03-04T23:16:20.651Z,84.00
2019-03-04T23:18:49.105Z,83.90
2019-03-04T23:21:17.604Z,83.80
2019-03-04T23:23:45.997Z,83.50
2019-03-04T23:26:14.388Z,83.40
2019-03-04T23:28:42.802Z,83.60
2019-03-04T23:31:11.256Z,83.60
2019-03-04T23:33:39.652Z,83.90
2019-03-04T23:36:08.076Z,83.80
2019-03-04T23:38:36.481Z,84.40
2019-03-04T23:41:04.940Z,84.70
2019-03-04T23:43:33.450Z,84.50
2019-03-04T23:46:01.835Z,84.50
2019-03-04T23:48:30.233Z,84.30
2019-03-04T23:50:58.791Z,84.30
2019-03-04T23:53:27.193Z,84.30
2019-03-04T23:55:55.596Z,84.40
2019-03-04T23:58:24.333Z,84.70
